sensor_id;sensor_type;location;lat;lon;timestamp;P1;durP1;ratioP1;P2;durP2;ratioP2
22939;SDS011;11636;52.086;5.090;2023-03-01T00:00:48;15.38;;;11.82;;
22939;SDS011;11636;52.086;5.090;2023-03-01T00:03:22;15.93;;;11.90;;
22939;SDS011;11636;52.086;5.090;2023-03-01T00:05:49;18.85;;;13.00;;
22939;SDS011;11636;52.086;5.090;2023-03-01T00:08:15;15.98;;;11.77;;
22939;SDS011;11636;52.086;5.090;2023-03-01T00:10:49;15.75;;;11.80;;
22939;SDS011;11636;52.086;5.090;2023-03-01T00:13:25;16.23;;;12.35;;
22939;SDS011;11636;52.086;5.090;2023-03-01T00:15:58;14.93;;;11.48;;
22939;SDS011;11636;52.086;5.090;2023-03-01T00:18:27;16.48;;;11.32;;
22939;SDS011;11636;52.086;5.090;2023-03-01T00:20:54;16.40;;;12.13;;
22939;SDS011;11636;52.086;5.090;2023-03-01T00:23:28;16.00;;;11.73;;
22939;SDS011;11636;52.086;5.090;2023-03-01T00:25:55;15.98;;;12.05;;
22939;SDS011;11636;52.086;5.090;2023-03-01T00:28:22;14.85;;;11.57;;
22939;SDS011;11636;52.086;5.090;2023-03-01T00:31:05;15.57;;;11.60;;
22939;SDS011;11636;52.086;5.090;2023-03-01T00:33:34;17.45;;;11.60;;
22939;SDS011;11636;52.086;5.090;2023-03-01T00:36:09;14.35;;;10.80;;
22939;SDS011;11636;52.086;5.090;2023-03-01T00:38:37;13.55;;;10.18;;
22939;SDS011;11636;52.086;5.090;2023-03-01T00:41:07;18.77;;;13.30;;
22939;SDS011;11636;52.086;5.090;2023-03-01T00:43:45;14.98;;;10.75;;
22939;SDS011;11636;52.086;5.090;2023-03-01T00:46:13;14.70;;;11.10;;
22939;SDS011;11636;52.086;5.090;2023-03-01T00:48:41;13.98;;;10.45;;
22939;SDS011;11636;52.086;5.090;2023-03-01T00:51:16;15.30;;;11.38;;
22939;SDS011;11636;52.086;5.090;2023-03-01T00:53:52;13.23;;;10.48;;
22939;SDS011;11636;52.086;5.090;2023-03-01T00:56:20;14.35;;;10.15;;
22939;SDS011;11636;52.086;5.090;2023-03-01T00:59:01;14.82;;;10.68;;
22939;SDS011;11636;52.086;5.090;2023-03-01T01:01:29;17.20;;;10.18;;
22939;SDS011;11636;52.086;5.090;2023-03-01T01:04:01;14.40;;;11.07;;
22939;SDS011;11636;52.086;5.090;2023-03-01T01:06:40;14.45;;;10.35;;
22939;SDS011;11636;52.086;5.090;2023-03-01T01:09:10;15.88;;;11.48;;
22939;SDS011;11636;52.086;5.090;2023-03-01T01:11:51;13.73;;;9.88;;
22939;SDS011;11636;52.086;5.090;2023-03-01T01:14:18;15.73;;;11.38;;
22939;SDS011;11636;52.086;5.090;2023-03-01T01:16:51;13.73;;;10.52;;
22939;SDS011;11636;52.086;5.090;2023-03-01T01:19:24;15.50;;;10.75;;
22939;SDS011;11636;52.086;5.090;2023-03-01T01:21:52;13.20;;;9.80;;
22939;SDS011;11636;52.086;5.090;2023-03-01T01:24:19;16.25;;;11.10;;
22939;SDS011;11636;52.086;5.090;2023-03-01T01:26:52;16.33;;;11.23;;
22939;SDS011;11636;52.086;5.090;2023-03-01T01:29:19;14.70;;;10.65;;
22939;SDS011;11636;52.086;5.090;2023-03-01T01:31:46;14.02;;;11.35;;
22939;SDS011;11636;52.086;5.090;2023-03-01T01:34:20;17.35;;;12.63;;
22939;SDS011;11636;52.086;5.090;2023-03-01T01:36:48;15.90;;;11.70;;
22939;SDS011;11636;52.086;5.090;2023-03-01T01:39:20;16.75;;;12.23;;
22939;SDS011;11636;52.086;5.090;2023-03-01T01:41:54;15.15;;;10.70;;
22939;SDS011;11636;52.086;5.090;2023-03-01T01:44:22;16.00;;;11.38;;
22939;SDS011;11636;52.086;5.090;2023-03-01T01:54:46;16.60;;;12.02;;
22939;SDS011;11636;52.086;5.090;2023-03-01T01:57:26;15.13;;;11.43;;
22939;SDS011;11636;52.086;5.090;2023-03-01T02:00:16;18.10;;;11.98;;
22939;SDS011;11636;52.086;5.090;2023-03-01T02:02:46;15.77;;;12.02;;
22939;SDS011;11636;52.086;5.090;2023-03-01T02:05:26;16.23;;;11.95;;
22939;SDS011;11636;52.086;5.090;2023-03-01T02:08:20;17.65;;;12.50;;
22939;SDS011;11636;52.086;5.090;2023-03-01T02:10:57;15.80;;;12.15;;
22939;SDS011;11636;52.086;5.090;2023-03-01T02:13:30;17.58;;;11.98;;
22939;SDS011;11636;52.086;5.090;2023-03-01T02:16:08;17.75;;;13.13;;
22939;SDS011;11636;52.086;5.090;2023-03-01T02:18:36;18.00;;;12.50;;
22939;SDS011;11636;52.086;5.090;2023-03-01T02:21:35;18.05;;;13.23;;
22939;SDS011;11636;52.086;5.090;2023-03-01T02:27:22;17.08;;;13.05;;
22939;SDS011;11636;52.086;5.090;2023-03-01T02:29:56;16.23;;;12.02;;
22939;SDS011;11636;52.086;5.090;2023-03-01T02:32:29;16.35;;;12.50;;
22939;SDS011;11636;52.086;5.090;2023-03-01T02:34:57;17.05;;;13.38;;
22939;SDS011;11636;52.086;5.090;2023-03-01T02:37:24;16.38;;;12.88;;
22939;SDS011;11636;52.086;5.090;2023-03-01T02:39:59;17.17;;;12.60;;
22939;SDS011;11636;52.086;5.090;2023-03-01T02:42:36;18.27;;;13.98;;
22939;SDS011;11636;52.086;5.090;2023-03-01T02:45:18;18.80;;;13.57;;
22939;SDS011;11636;52.086;5.090;2023-03-01T02:47:45;19.63;;;14.05;;
22939;SDS011;11636;52.086;5.090;2023-03-01T02:50:15;19.60;;;14.75;;
22939;SDS011;11636;52.086;5.090;2023-03-01T02:55:38;17.38;;;12.60;;
22939;SDS011;11636;52.086;5.090;2023-03-01T02:58:12;19.27;;;13.05;;
22939;SDS011;11636;52.086;5.090;2023-03-01T03:00:46;18.80;;;13.52;;
22939;SDS011;11636;52.086;5.090;2023-03-01T03:03:19;17.73;;;13.10;;
22939;SDS011;11636;52.086;5.090;2023-03-01T03:05:54;18.45;;;13.77;;
22939;SDS011;11636;52.086;5.090;2023-03-01T03:08:20;18.60;;;13.63;;
22939;SDS011;11636;52.086;5.090;2023-03-01T03:10:50;21.35;;;14.02;;
22939;SDS011;11636;52.086;5.090;2023-03-01T03:13:26;18.90;;;13.88;;
22939;SDS011;11636;52.086;5.090;2023-03-01T03:15:55;19.25;;;14.10;;
22939;SDS011;11636;52.086;5.090;2023-03-01T03:18:23;19.55;;;14.05;;
22939;SDS011;11636;52.086;5.090;2023-03-01T03:20:58;18.50;;;13.80;;
22939;SDS011;11636;52.086;5.090;2023-03-01T03:23:25;19.65;;;14.77;;
22939;SDS011;11636;52.086;5.090;2023-03-01T03:25:52;20.42;;;14.88;;
22939;SDS011;11636;52.086;5.090;2023-03-01T03:28:25;19.30;;;14.70;;
22939;SDS011;11636;52.086;5.090;2023-03-01T03:30:52;19.15;;;13.90;;
22939;SDS011;11636;52.086;5.090;2023-03-01T03:33:25;20.20;;;14.00;;
22939;SDS011;11636;52.086;5.090;2023-03-01T03:35:52;19.90;;;14.60;;
22939;SDS011;11636;52.086;5.090;2023-03-01T03:38:25;19.02;;;14.00;;
22939;SDS011;11636;52.086;5.090;2023-03-01T03:40:59;19.92;;;14.13;;
22939;SDS011;11636;52.086;5.090;2023-03-01T03:43:36;19.40;;;13.80;;
22939;SDS011;11636;52.086;5.090;2023-03-01T03:46:04;20.17;;;14.63;;
22939;SDS011;11636;52.086;5.090;2023-03-01T03:48:40;20.33;;;14.30;;
22939;SDS011;11636;52.086;5.090;2023-03-01T03:51:17;20.80;;;14.55;;
22939;SDS011;11636;52.086;5.090;2023-03-01T03:53:51;18.98;;;14.20;;
22939;SDS011;11636;52.086;5.090;2023-03-01T03:56:18;19.25;;;14.57;;
22939;SDS011;11636;52.086;5.090;2023-03-01T03:58:54;20.08;;;15.52;;
22939;SDS011;11636;52.086;5.090;2023-03-01T04:01:20;21.23;;;15.07;;
22939;SDS011;11636;52.086;5.090;2023-03-01T04:03:47;20.25;;;14.70;;
22939;SDS011;11636;52.086;5.090;2023-03-01T04:06:20;23.25;;;15.85;;
22939;SDS011;11636;52.086;5.090;2023-03-01T04:08:47;20.23;;;14.73;;
22939;SDS011;11636;52.086;5.090;2023-03-01T04:11:23;18.67;;;13.93;;
22939;SDS011;11636;52.086;5.090;2023-03-01T04:13:59;20.85;;;14.88;;
22939;SDS011;11636;52.086;5.090;2023-03-01T04:16:32;20.90;;;14.50;;
22939;SDS011;11636;52.086;5.090;2023-03-01T04:19:05;21.02;;;14.85;;
22939;SDS011;11636;52.086;5.090;2023-03-01T04:21:38;20.42;;;14.45;;
22939;SDS011;11636;52.086;5.090;2023-03-01T04:24:05;20.30;;;15.50;;
22939;SDS011;11636;52.086;5.090;2023-03-01T04:26:33;21.45;;;15.05;;
22939;SDS011;11636;52.086;5.090;2023-03-01T04:29:06;20.45;;;15.20;;
22939;SDS011;11636;52.086;5.090;2023-03-01T04:31:33;21.20;;;14.95;;
22939;SDS011;11636;52.086;5.090;2023-03-01T04:34:06;19.10;;;13.98;;
22939;SDS011;11636;52.086;5.090;2023-03-01T04:36:33;22.77;;;15.07;;
22939;SDS011;11636;52.086;5.090;2023-03-01T04:39:07;20.42;;;14.35;;
22939;SDS011;11636;52.086;5.090;2023-03-01T04:41:38;18.75;;;13.73;;
22939;SDS011;11636;52.086;5.090;2023-03-01T04:44:07;21.25;;;14.68;;
22939;SDS011;11636;52.086;5.090;2023-03-01T04:46:41;20.17;;;14.27;;
22939;SDS011;11636;52.086;5.090;2023-03-01T04:49:08;19.15;;;13.68;;
22939;SDS011;11636;52.086;5.090;2023-03-01T04:51:41;19.23;;;13.70;;
22939;SDS011;11636;52.086;5.090;2023-03-01T04:54:09;19.58;;;14.07;;
22939;SDS011;11636;52.086;5.090;2023-03-01T04:56:42;18.77;;;13.77;;
22939;SDS011;11636;52.086;5.090;2023-03-01T04:59:09;18.75;;;12.57;;
22939;SDS011;11636;52.086;5.090;2023-03-01T05:01:44;18.50;;;13.25;;
22939;SDS011;11636;52.086;5.090;2023-03-01T05:04:12;18.02;;;13.30;;
22939;SDS011;11636;52.086;5.090;2023-03-01T05:06:39;18.80;;;13.10;;
22939;SDS011;11636;52.086;5.090;2023-03-01T05:09:12;18.20;;;13.23;;
22939;SDS011;11636;52.086;5.090;2023-03-01T05:11:39;18.02;;;13.30;;
22939;SDS011;11636;52.086;5.090;2023-03-01T05:14:12;17.90;;;12.98;;
22939;SDS011;11636;52.086;5.090;2023-03-01T05:16:39;17.27;;;12.82;;
22939;SDS011;11636;52.086;5.090;2023-03-01T05:19:12;17.50;;;13.10;;
22939;SDS011;11636;52.086;5.090;2023-03-01T05:21:42;19.13;;;13.77;;
22939;SDS011;11636;52.086;5.090;2023-03-01T05:24:34;17.42;;;12.75;;
22939;SDS011;11636;52.086;5.090;2023-03-01T05:27:07;19.92;;;13.90;;
22939;SDS011;11636;52.086;5.090;2023-03-01T05:29:41;17.85;;;12.60;;
22939;SDS011;11636;52.086;5.090;2023-03-01T05:32:14;19.05;;;12.43;;
22939;SDS011;11636;52.086;5.090;2023-03-01T05:34:42;18.35;;;12.93;;
22939;SDS011;11636;52.086;5.090;2023-03-01T05:37:17;19.02;;;13.55;;
22939;SDS011;11636;52.086;5.090;2023-03-01T05:39:45;18.50;;;13.05;;
22939;SDS011;11636;52.086;5.090;2023-03-01T05:42:18;18.02;;;12.75;;
22939;SDS011;11636;52.086;5.090;2023-03-01T05:44:45;18.08;;;12.82;;
22939;SDS011;11636;52.086;5.090;2023-03-01T05:47:18;18.92;;;13.13;;
22939;SDS011;11636;52.086;5.090;2023-03-01T05:49:47;20.10;;;13.70;;
22939;SDS011;11636;52.086;5.090;2023-03-01T05:52:23;20.50;;;14.70;;
22939;SDS011;11636;52.086;5.090;2023-03-01T05:54:49;21.88;;;14.55;;
22939;SDS011;11636;52.086;5.090;2023-03-01T05:57:23;22.23;;;15.32;;
22939;SDS011;11636;52.086;5.090;2023-03-01T05:59:55;21.20;;;14.65;;
22939;SDS011;11636;52.086;5.090;2023-03-01T06:02:23;21.98;;;15.07;;
22939;SDS011;11636;52.086;5.090;2023-03-01T06:04:50;22.67;;;15.40;;
22939;SDS011;11636;52.086;5.090;2023-03-01T06:07:23;21.27;;;14.70;;
22939;SDS011;11636;52.086;5.090;2023-03-01T06:09:49;22.10;;;15.60;;
22939;SDS011;11636;52.086;5.090;2023-03-01T06:12:23;21.92;;;15.50;;
22939;SDS011;11636;52.086;5.090;2023-03-01T06:14:50;24.25;;;15.85;;
22939;SDS011;11636;52.086;5.090;2023-03-01T06:17:23;21.45;;;14.95;;
22939;SDS011;11636;52.086;5.090;2023-03-01T06:19:56;20.73;;;14.63;;
22939;SDS011;11636;52.086;5.090;2023-03-01T06:22:29;22.02;;;14.25;;
22939;SDS011;11636;52.086;5.090;2023-03-01T06:25:03;21.10;;;13.73;;
22939;SDS011;11636;52.086;5.090;2023-03-01T06:27:37;19.83;;;13.90;;
22939;SDS011;11636;52.086;5.090;2023-03-01T06:30:04;19.83;;;13.57;;
22939;SDS011;11636;52.086;5.090;2023-03-01T06:32:38;19.63;;;13.52;;
22939;SDS011;11636;52.086;5.090;2023-03-01T06:35:12;19.38;;;13.48;;
22939;SDS011;11636;52.086;5.090;2023-03-01T06:37:47;18.85;;;13.13;;
22939;SDS011;11636;52.086;5.090;2023-03-01T06:40:21;17.00;;;12.30;;
22939;SDS011;11636;52.086;5.090;2023-03-01T06:42:48;19.63;;;13.00;;
22939;SDS011;11636;52.086;5.090;2023-03-01T06:45:23;16.67;;;11.55;;
22939;SDS011;11636;52.086;5.090;2023-03-01T06:48:14;16.92;;;11.23;;
22939;SDS011;11636;52.086;5.090;2023-03-01T06:50:48;18.17;;;11.93;;
22939;SDS011;11636;52.086;5.090;2023-03-01T06:53:21;16.15;;;11.10;;
22939;SDS011;11636;52.086;5.090;2023-03-01T06:55:55;16.50;;;11.50;;
22939;SDS011;11636;52.086;5.090;2023-03-01T06:58:26;15.83;;;11.30;;
22939;SDS011;11636;52.086;5.090;2023-03-01T07:01:00;19.65;;;12.10;;
22939;SDS011;11636;52.086;5.090;2023-03-01T07:03:31;16.25;;;11.50;;
22939;SDS011;11636;52.086;5.090;2023-03-01T07:05:58;17.88;;;12.40;;
22939;SDS011;11636;52.086;5.090;2023-03-01T07:08:32;19.05;;;13.15;;
22939;SDS011;11636;52.086;5.090;2023-03-01T07:10:59;15.98;;;11.70;;
22939;SDS011;11636;52.086;5.090;2023-03-01T07:13:35;19.70;;;12.70;;
22939;SDS011;11636;52.086;5.090;2023-03-01T07:16:01;19.67;;;13.32;;
22939;SDS011;11636;52.086;5.090;2023-03-01T07:18:35;20.10;;;13.77;;
22939;SDS011;11636;52.086;5.090;2023-03-01T07:21:08;20.60;;;14.18;;
22939;SDS011;11636;52.086;5.090;2023-03-01T07:23:47;19.40;;;13.50;;
22939;SDS011;11636;52.086;5.090;2023-03-01T07:26:21;19.25;;;12.90;;
22939;SDS011;11636;52.086;5.090;2023-03-01T07:28:51;20.50;;;14.07;;
22939;SDS011;11636;52.086;5.090;2023-03-01T07:31:25;21.00;;;13.75;;
22939;SDS011;11636;52.086;5.090;2023-03-01T07:34:00;20.60;;;14.55;;
22939;SDS011;11636;52.086;5.090;2023-03-01T07:36:33;22.35;;;14.27;;
22939;SDS011;11636;52.086;5.090;2023-03-01T07:38:59;19.23;;;13.23;;
22939;SDS011;11636;52.086;5.090;2023-03-01T07:41:35;21.70;;;14.20;;
22939;SDS011;11636;52.086;5.090;2023-03-01T07:44:09;19.63;;;13.93;;
22939;SDS011;11636;52.086;5.090;2023-03-01T07:46:35;18.58;;;12.75;;
22939;SDS011;11636;52.086;5.090;2023-03-01T07:49:09;18.30;;;13.05;;
22939;SDS011;11636;52.086;5.090;2023-03-01T07:51:36;21.13;;;14.85;;
22939;SDS011;11636;52.086;5.090;2023-03-01T07:54:09;18.92;;;13.10;;
22939;SDS011;11636;52.086;5.090;2023-03-01T07:56:35;16.77;;;12.38;;
22939;SDS011;11636;52.086;5.090;2023-03-01T07:59:09;17.50;;;12.25;;
22939;SDS011;11636;52.086;5.090;2023-03-01T08:01:48;18.08;;;12.02;;
22939;SDS011;11636;52.086;5.090;2023-03-01T08:04:15;18.35;;;12.05;;
22939;SDS011;11636;52.086;5.090;2023-03-01T08:06:49;18.90;;;13.15;;
22939;SDS011;11636;52.086;5.090;2023-03-01T08:09:15;17.95;;;12.57;;
22939;SDS011;11636;52.086;5.090;2023-03-01T08:11:49;15.90;;;11.07;;
22939;SDS011;11636;52.086;5.090;2023-03-01T08:14:22;15.95;;;11.18;;
22939;SDS011;11636;52.086;5.090;2023-03-01T08:16:49;15.88;;;11.13;;
22939;SDS011;11636;52.086;5.090;2023-03-01T08:19:16;14.40;;;10.05;;
22939;SDS011;11636;52.086;5.090;2023-03-01T08:21:50;16.13;;;11.15;;
22939;SDS011;11636;52.086;5.090;2023-03-01T08:24:23;13.40;;;9.35;;
22939;SDS011;11636;52.086;5.090;2023-03-01T08:26:56;14.82;;;8.68;;
22939;SDS011;11636;52.086;5.090;2023-03-01T08:29:30;15.05;;;10.18;;
22939;SDS011;11636;52.086;5.090;2023-03-01T08:32:05;12.60;;;9.15;;
22939;SDS011;11636;52.086;5.090;2023-03-01T08:34:38;12.27;;;8.70;;
22939;SDS011;11636;52.086;5.090;2023-03-01T08:37:07;13.32;;;8.90;;
22939;SDS011;11636;52.086;5.090;2023-03-01T08:39:42;11.02;;;7.55;;
22939;SDS011;11636;52.086;5.090;2023-03-01T08:42:09;11.15;;;7.60;;
22939;SDS011;11636;52.086;5.090;2023-03-01T08:44:42;11.02;;;7.68;;
22939;SDS011;11636;52.086;5.090;2023-03-01T08:47:11;10.05;;;6.75;;
22939;SDS011;11636;52.086;5.090;2023-03-01T08:49:38;9.52;;;6.88;;
22939;SDS011;11636;52.086;5.090;2023-03-01T08:52:12;10.10;;;7.30;;
22939;SDS011;11636;52.086;5.090;2023-03-01T08:54:46;10.27;;;7.13;;
22939;SDS011;11636;52.086;5.090;2023-03-01T08:57:20;9.70;;;7.25;;
22939;SDS011;11636;52.086;5.090;2023-03-01T08:59:47;10.02;;;7.25;;
22939;SDS011;11636;52.086;5.090;2023-03-01T09:02:20;10.30;;;6.35;;
22939;SDS011;11636;52.086;5.090;2023-03-01T09:04:47;10.02;;;7.05;;
22939;SDS011;11636;52.086;5.090;2023-03-01T09:07:26;9.65;;;6.60;;
22939;SDS011;11636;52.086;5.090;2023-03-01T09:10:03;11.55;;;8.38;;
22939;SDS011;11636;52.086;5.090;2023-03-01T09:12:31;11.50;;;7.65;;
22939;SDS011;11636;52.086;5.090;2023-03-01T09:15:04;11.65;;;7.63;;
22939;SDS011;11636;52.086;5.090;2023-03-01T09:17:38;10.75;;;6.90;;
22939;SDS011;11636;52.086;5.090;2023-03-01T09:20:05;8.88;;;6.65;;
22939;SDS011;11636;52.086;5.090;2023-03-01T09:22:35;10.88;;;6.82;;
22939;SDS011;11636;52.086;5.090;2023-03-01T09:25:09;9.07;;;6.85;;
22939;SDS011;11636;52.086;5.090;2023-03-01T09:27:42;10.00;;;6.63;;
22939;SDS011;11636;52.086;5.090;2023-03-01T09:30:09;9.05;;;6.57;;
22939;SDS011;11636;52.086;5.090;2023-03-01T09:32:36;10.77;;;7.13;;
22939;SDS011;11636;52.086;5.090;2023-03-01T09:35:11;10.05;;;7.15;;
22939;SDS011;11636;52.086;5.090;2023-03-01T09:37:45;8.18;;;6.18;;
22939;SDS011;11636;52.086;5.090;2023-03-01T09:40:20;8.45;;;5.95;;
22939;SDS011;11636;52.086;5.090;2023-03-01T09:43:02;8.98;;;6.10;;
22939;SDS011;11636;52.086;5.090;2023-03-01T09:45:41;11.13;;;7.15;;
22939;SDS011;11636;52.086;5.090;2023-03-01T09:48:18;11.38;;;7.20;;
22939;SDS011;11636;52.086;5.090;2023-03-01T09:50:56;12.30;;;7.28;;
22939;SDS011;11636;52.086;5.090;2023-03-01T09:53:31;10.25;;;7.13;;
22939;SDS011;11636;52.086;5.090;2023-03-01T09:56:22;9.52;;;6.40;;
22939;SDS011;11636;52.086;5.090;2023-03-01T10:09:37;8.75;;;5.70;;
22939;SDS011;11636;52.086;5.090;2023-03-01T10:12:17;9.57;;;6.07;;
22939;SDS011;11636;52.086;5.090;2023-03-01T10:17:49;9.10;;;5.78;;
22939;SDS011;11636;52.086;5.090;2023-03-01T10:20:41;9.55;;;6.05;;
22939;SDS011;11636;52.086;5.090;2023-03-01T10:23:31;9.38;;;5.93;;
22939;SDS011;11636;52.086;5.090;2023-03-01T10:26:05;8.48;;;5.65;;
22939;SDS011;11636;52.086;5.090;2023-03-01T10:29:00;8.90;;;5.45;;
22939;SDS011;11636;52.086;5.090;2023-03-01T10:31:38;8.90;;;5.15;;
22939;SDS011;11636;52.086;5.090;2023-03-01T10:34:28;8.35;;;5.22;;
22939;SDS011;11636;52.086;5.090;2023-03-01T10:37:04;7.78;;;5.03;;
22939;SDS011;11636;52.086;5.090;2023-03-01T10:39:58;9.10;;;4.80;;
22939;SDS011;11636;52.086;5.090;2023-03-01T10:42:48;9.05;;;5.15;;
22939;SDS011;11636;52.086;5.090;2023-03-01T10:48:04;7.68;;;4.90;;
22939;SDS011;11636;52.086;5.090;2023-03-01T10:50:41;8.90;;;5.78;;
22939;SDS011;11636;52.086;5.090;2023-03-01T10:53:19;8.80;;;5.88;;
22939;SDS011;11636;52.086;5.090;2023-03-01T10:58:39;7.13;;;4.95;;
22939;SDS011;11636;52.086;5.090;2023-03-01T11:01:42;7.22;;;5.07;;
22939;SDS011;11636;52.086;5.090;2023-03-01T11:04:13;8.73;;;5.25;;
22939;SDS011;11636;52.086;5.090;2023-03-01T11:06:40;7.65;;;5.30;;
22939;SDS011;11636;52.086;5.090;2023-03-01T11:11:56;7.28;;;4.38;;
22939;SDS011;11636;52.086;5.090;2023-03-01T11:14:35;12.90;;;6.18;;
22939;SDS011;11636;52.086;5.090;2023-03-01T11:17:05;6.68;;;4.57;;
22939;SDS011;11636;52.086;5.090;2023-03-01T11:20:02;8.68;;;5.18;;
22939;SDS011;11636;52.086;5.090;2023-03-01T11:22:32;10.60;;;6.40;;
22939;SDS011;11636;52.086;5.090;2023-03-01T11:25:07;9.93;;;6.03;;
22939;SDS011;11636;52.086;5.090;2023-03-01T11:27:41;8.32;;;5.07;;
22939;SDS011;11636;52.086;5.090;2023-03-01T11:36:06;9.57;;;4.70;;
22939;SDS011;11636;52.086;5.090;2023-03-01T11:38:48;9.00;;;5.20;;
22939;SDS011;11636;52.086;5.090;2023-03-01T11:41:17;7.82;;;4.88;;
22939;SDS011;11636;52.086;5.090;2023-03-01T11:44:28;8.75;;;4.88;;
22939;SDS011;11636;52.086;5.090;2023-03-01T11:47:07;7.97;;;4.53;;
22939;SDS011;11636;52.086;5.090;2023-03-01T11:50:07;7.00;;;4.57;;
22939;SDS011;11636;52.086;5.090;2023-03-01T12:01:12;7.60;;;4.50;;
22939;SDS011;11636;52.086;5.090;2023-03-01T12:15:55;9.68;;;3.85;;
22939;SDS011;11636;52.086;5.090;2023-03-01T12:19:01;6.18;;;3.90;;
22939;SDS011;11636;52.086;5.090;2023-03-01T12:21:55;6.00;;;3.75;;
22939;SDS011;11636;52.086;5.090;2023-03-01T12:24:37;5.38;;;3.67;;
22939;SDS011;11636;52.086;5.090;2023-03-01T12:30:44;5.78;;;3.58;;
22939;SDS011;11636;52.086;5.090;2023-03-01T12:45:05;5.13;;;2.63;;
22939;SDS011;11636;52.086;5.090;2023-03-01T12:51:11;5.03;;;3.17;;
22939;SDS011;11636;52.086;5.090;2023-03-01T12:53:44;8.20;;;3.15;;
22939;SDS011;11636;52.086;5.090;2023-03-01T12:56:21;4.95;;;3.25;;
22939;SDS011;11636;52.086;5.090;2023-03-01T12:59:11;5.15;;;3.13;;
22939;SDS011;11636;52.086;5.090;2023-03-01T13:01:55;5.45;;;2.88;;
22939;SDS011;11636;52.086;5.090;2023-03-01T13:04:39;6.15;;;3.30;;
22939;SDS011;11636;52.086;5.090;2023-03-01T13:18:00;6.90;;;3.78;;
22939;SDS011;11636;52.086;5.090;2023-03-01T13:33:50;4.82;;;3.03;;
22939;SDS011;11636;52.086;5.090;2023-03-01T13:57:48;5.80;;;3.65;;
22939;SDS011;11636;52.086;5.090;2023-03-01T14:00:36;6.18;;;3.50;;
22939;SDS011;11636;52.086;5.090;2023-03-01T14:03:15;5.20;;;3.30;;
22939;SDS011;11636;52.086;5.090;2023-03-01T14:05:58;5.70;;;3.25;;
22939;SDS011;11636;52.086;5.090;2023-03-01T14:08:47;5.28;;;3.60;;
22939;SDS011;11636;52.086;5.090;2023-03-01T14:19:57;5.75;;;2.90;;
22939;SDS011;11636;52.086;5.090;2023-03-01T14:22:34;5.28;;;2.88;;
22939;SDS011;11636;52.086;5.090;2023-03-01T14:25:05;4.90;;;3.30;;
22939;SDS011;11636;52.086;5.090;2023-03-01T14:27:59;5.65;;;3.33;;
22939;SDS011;11636;52.086;5.090;2023-03-01T14:30:43;6.47;;;3.50;;
22939;SDS011;11636;52.086;5.090;2023-03-01T14:33:19;6.97;;;3.83;;
22939;SDS011;11636;52.086;5.090;2023-03-01T14:35:57;6.32;;;3.78;;
22939;SDS011;11636;52.086;5.090;2023-03-01T14:40:59;5.78;;;3.78;;
22939;SDS011;11636;52.086;5.090;2023-03-01T14:43:32;5.43;;;3.50;;
22939;SDS011;11636;52.086;5.090;2023-03-01T14:46:06;5.78;;;3.50;;
22939;SDS011;11636;52.086;5.090;2023-03-01T14:48:42;4.75;;;2.90;;
22939;SDS011;11636;52.086;5.090;2023-03-01T14:51:16;6.80;;;3.00;;
22939;SDS011;11636;52.086;5.090;2023-03-01T14:53:49;5.95;;;3.45;;
22939;SDS011;11636;52.086;5.090;2023-03-01T14:56:17;6.55;;;3.90;;
22939;SDS011;11636;52.086;5.090;2023-03-01T14:58:45;6.95;;;3.90;;
22939;SDS011;11636;52.086;5.090;2023-03-01T15:01:22;6.68;;;3.60;;
22939;SDS011;11636;52.086;5.090;2023-03-01T15:03:49;7.85;;;4.20;;
22939;SDS011;11636;52.086;5.090;2023-03-01T15:06:17;5.88;;;3.20;;
22939;SDS011;11636;52.086;5.090;2023-03-01T15:08:53;5.40;;;3.10;;
22939;SDS011;11636;52.086;5.090;2023-03-01T15:11:32;4.68;;;2.72;;
22939;SDS011;11636;52.086;5.090;2023-03-01T15:14:27;5.85;;;3.65;;
22939;SDS011;11636;52.086;5.090;2023-03-01T15:20:03;6.30;;;3.63;;
22939;SDS011;11636;52.086;5.090;2023-03-01T15:22:42;6.25;;;3.55;;
22939;SDS011;11636;52.086;5.090;2023-03-01T15:25:15;4.60;;;3.22;;
22939;SDS011;11636;52.086;5.090;2023-03-01T15:27:51;5.72;;;3.83;;
22939;SDS011;11636;52.086;5.090;2023-03-01T15:30:21;5.75;;;3.70;;
22939;SDS011;11636;52.086;5.090;2023-03-01T15:35:55;7.05;;;4.45;;
22939;SDS011;11636;52.086;5.090;2023-03-01T15:47:34;6.57;;;3.90;;
22939;SDS011;11636;52.086;5.090;2023-03-01T15:50:02;5.82;;;3.40;;
22939;SDS011;11636;52.086;5.090;2023-03-01T15:52:39;6.05;;;3.72;;
22939;SDS011;11636;52.086;5.090;2023-03-01T15:55:21;6.63;;;3.38;;
22939;SDS011;11636;52.086;5.090;2023-03-01T15:58:10;6.05;;;3.97;;
22939;SDS011;11636;52.086;5.090;2023-03-01T16:00:40;6.10;;;3.65;;
22939;SDS011;11636;52.086;5.090;2023-03-01T16:03:26;6.55;;;3.90;;
22939;SDS011;11636;52.086;5.090;2023-03-01T16:05:54;6.00;;;3.55;;
22939;SDS011;11636;52.086;5.090;2023-03-01T16:08:28;6.03;;;3.58;;
22939;SDS011;11636;52.086;5.090;2023-03-01T16:10:55;5.45;;;3.22;;
22939;SDS011;11636;52.086;5.090;2023-03-01T16:13:29;5.30;;;3.35;;
22939;SDS011;11636;52.086;5.090;2023-03-01T16:15:57;6.63;;;3.95;;
22939;SDS011;11636;52.086;5.090;2023-03-01T16:18:31;6.25;;;3.90;;
22939;SDS011;11636;52.086;5.090;2023-03-01T16:20:58;5.53;;;3.55;;
22939;SDS011;11636;52.086;5.090;2023-03-01T16:23:35;5.97;;;3.90;;
22939;SDS011;11636;52.086;5.090;2023-03-01T16:26:02;7.45;;;4.25;;
22939;SDS011;11636;52.086;5.090;2023-03-01T16:28:36;5.88;;;3.72;;
22939;SDS011;11636;52.086;5.090;2023-03-01T16:31:03;5.85;;;3.60;;
22939;SDS011;11636;52.086;5.090;2023-03-01T16:33:31;6.35;;;3.42;;
22939;SDS011;11636;52.086;5.090;2023-03-01T16:36:06;5.72;;;3.78;;
22939;SDS011;11636;52.086;5.090;2023-03-01T16:38:34;5.47;;;3.70;;
22939;SDS011;11636;52.086;5.090;2023-03-01T16:41:12;5.63;;;3.85;;
22939;SDS011;11636;52.086;5.090;2023-03-01T16:43:40;8.43;;;4.82;;
22939;SDS011;11636;52.086;5.090;2023-03-01T16:46:18;7.18;;;4.78;;
22939;SDS011;11636;52.086;5.090;2023-03-01T16:48:53;6.88;;;4.22;;
22939;SDS011;11636;52.086;5.090;2023-03-01T16:51:21;6.10;;;4.18;;
22939;SDS011;11636;52.086;5.090;2023-03-01T16:53:50;6.43;;;4.13;;
22939;SDS011;11636;52.086;5.090;2023-03-01T16:56:24;6.82;;;4.00;;
22939;SDS011;11636;52.086;5.090;2023-03-01T16:58:51;7.20;;;3.85;;
22939;SDS011;11636;52.086;5.090;2023-03-01T17:01:19;7.80;;;4.55;;
22939;SDS011;11636;52.086;5.090;2023-03-01T17:03:57;6.30;;;3.90;;
22939;SDS011;11636;52.086;5.090;2023-03-01T17:06:30;6.95;;;4.35;;
22939;SDS011;11636;52.086;5.090;2023-03-01T17:09:10;8.32;;;5.28;;
22939;SDS011;11636;52.086;5.090;2023-03-01T17:11:44;5.90;;;3.47;;
22939;SDS011;11636;52.086;5.090;2023-03-01T17:14:11;6.32;;;3.92;;
22939;SDS011;11636;52.086;5.090;2023-03-01T17:16:45;7.13;;;4.72;;
22939;SDS011;11636;52.086;5.090;2023-03-01T17:19:14;9.38;;;5.13;;
22939;SDS011;11636;52.086;5.090;2023-03-01T17:21:44;7.40;;;4.93;;
22939;SDS011;11636;52.086;5.090;2023-03-01T17:24:17;8.93;;;4.93;;
22939;SDS011;11636;52.086;5.090;2023-03-01T17:26:45;8.88;;;4.70;;
22939;SDS011;11636;52.086;5.090;2023-03-01T17:29:14;7.90;;;4.90;;
22939;SDS011;11636;52.086;5.090;2023-03-01T17:31:50;10.20;;;5.72;;
22939;SDS011;11636;52.086;5.090;2023-03-01T17:34:23;7.95;;;5.22;;
22939;SDS011;11636;52.086;5.090;2023-03-01T17:36:51;7.28;;;4.80;;
22939;SDS011;11636;52.086;5.090;2023-03-01T17:39:18;7.38;;;5.20;;
22939;SDS011;11636;52.086;5.090;2023-03-01T17:42:00;10.25;;;6.28;;
22939;SDS011;11636;52.086;5.090;2023-03-01T17:44:30;10.50;;;6.45;;